Weather History for Woodward, OK

Change the Weather History Date:

Thursday, February 20, 2014

  Actual Average (KGAG) Record (KGAG)
Temperature  
Mean Temperature 44 °F -  
Max Temperature 55 °F 57 °F 90 °F (1981)
Min Temperature 32 °F 27 °F 9 °F (1978)
Degree Days  
Heating Degree Days 22    
Moisture  
Dew Point 23 °F    
Average Humidity 46    
Maximum Humidity 82    
Minimum Humidity 13    
Precipitation  
Precipitation 0.00 in - - ()
Sea Level Pressure  
Sea Level Pressure 29.83 in    
Wind  
Wind Speed 21 mph (WNW)    
Max Wind Speed 40 mph    
Max Gust Speed 52 mph    
Visibility 10 miles    
Events      
Averages and records for this station are not official NWS values.
T = Trace of Precipitation, MM = Missing Value Source: NWS Daily Summary

Daily Weather History Graph

Daily Weather History Graph

Search for Another Location

Airport:

Trip Planner

Search our weather history database for the weather conditions in past years. The results will help you decide how hot, cold, wet, or windy it might be!

Date:

Astronomy

Feb. 20, 2014 Rise Set
Actual Time 7:20 AM CST 6:24 PM CST
Civil Twilight 6:53 AM CST 6:50 PM CST
Nautical Twilight 6:23 AM CST 7:20 PM CST
Astronomical Twilight 5:53 AM CST 7:50 PM CST
Moon No Moon Rise 10:13 AM CST (2/20)
Length of Visible Light 11h 56m
Length of Day
11h 04m
Waning Gibbous, 70% of the Moon is Illuminated
Feb 20
Waning Gibbous
Feb 22
Last Quarter
Mar 1
New
Mar 8
First Quarter
Mar 16
Full

Hourly Weather History & Observations

Time (CST) Temp. Windchill Dew Point Humidity Pressure Visibility Wind Dir Wind Speed Gust Speed Precip Events Conditions
12:15 AM 55.4 °F - 46.4 °F 72% 29.42 in 10.0 mi South 21.9 mph 28.8 mph N/A   Clear
12:35 AM 55.4 °F - 50.0 °F 82% 29.41 in 10.0 mi South 23.0 mph 27.6 mph N/A   Clear
12:55 AM 55.4 °F - 50.0 °F 82% 29.40 in 10.0 mi South 19.6 mph 27.6 mph N/A   Clear
1:15 AM 55.4 °F - 50.0 °F 82% 29.39 in 10.0 mi South 19.6 mph 24.2 mph N/A   Clear
1:35 AM 55.4 °F - 50.0 °F 82% 29.38 in 10.0 mi South 17.3 mph 21.9 mph N/A   Clear
1:55 AM 55.4 °F - 50.0 °F 82% 29.37 in 10.0 mi South 17.3 mph - N/A   Clear
2:15 AM 55.4 °F - 50.0 °F 82% 29.37 in 10.0 mi SSW 12.7 mph 20.7 mph N/A   Clear
2:35 AM 55.4 °F - 50.0 °F 82% 29.39 in 10.0 mi SW 12.7 mph 17.3 mph N/A   Clear
2:55 AM 55.4 °F - 46.4 °F 72% 29.39 in 10.0 mi SW 18.4 mph 28.8 mph N/A   Clear
3:15 AM 55.4 °F - 41.0 °F 58% 29.40 in 10.0 mi SW 16.1 mph 21.9 mph N/A   Clear
3:35 AM 53.6 °F - 39.2 °F 58% 29.40 in 10.0 mi SW 15.0 mph - N/A   Clear
3:55 AM 53.6 °F - 33.8 °F 47% 29.40 in 10.0 mi WSW 15.0 mph - N/A   Mostly Cloudy
4:15 AM 53.6 °F - 30.2 °F 41% 29.41 in 10.0 mi WSW 13.8 mph - N/A   Overcast
4:35 AM 55.4 °F - 30.2 °F 38% 29.45 in 7.0 mi West 32.2 mph 41.4 mph N/A   Overcast
4:55 AM 53.6 °F - 32.0 °F 44% 29.48 in 10.0 mi West 24.2 mph 38.0 mph N/A   Scattered Clouds
5:15 AM 50.0 °F - 32.0 °F 50% 29.51 in 10.0 mi WNW 26.5 mph 34.5 mph N/A   Clear
5:35 AM 46.4 °F 37.9 °F 32.0 °F 57% 29.55 in 10.0 mi WNW 25.3 mph 34.5 mph N/A   Clear
5:55 AM 42.8 °F 33.1 °F 32.0 °F 66% 29.58 in 10.0 mi WNW 25.3 mph 40.3 mph N/A   Mostly Cloudy
6:15 AM 42.8 °F 32.7 °F 32.0 °F 66% 29.62 in 10.0 mi WNW 27.6 mph 42.6 mph N/A   Overcast
6:35 AM 41.0 °F 28.5 °F 32.0 °F 70% 29.65 in 10.0 mi NW 39.1 mph 49.5 mph N/A   Overcast
6:55 AM 41.0 °F 28.3 °F 32.0 °F 70% 29.69 in 10.0 mi NW 40.3 mph 50.6 mph N/A   Overcast
7:15 AM 41.0 °F 28.6 °F 30.2 °F 65% 29.72 in 10.0 mi NW 38.0 mph 51.8 mph N/A   Overcast
7:35 AM 39.2 °F 26.5 °F 30.2 °F 70% 29.74 in 10.0 mi NNW 35.7 mph 50.6 mph N/A   Mostly Cloudy
7:55 AM 37.4 °F 24.8 °F 30.2 °F 75% 29.77 in 10.0 mi NNW 31.1 mph 40.3 mph N/A   Mostly Cloudy
8:15 AM 37.4 °F 25.2 °F 32.0 °F 81% 29.79 in 10.0 mi NNW 28.8 mph 46.0 mph N/A   Overcast
8:35 AM 37.4 °F 24.6 °F 32.0 °F 81% 29.82 in 10.0 mi NNW 32.2 mph 43.7 mph N/A   Overcast
8:55 AM 37.4 °F 26.4 °F 32.0 °F 81% 29.86 in 10.0 mi NW 23.0 mph 35.7 mph N/A   Overcast
9:15 AM 41.0 °F 30.5 °F 32.0 °F 70% 29.87 in 10.0 mi NNW 26.5 mph 39.1 mph N/A   Overcast
9:35 AM 42.8 °F 32.9 °F 30.2 °F 61% 29.88 in 10.0 mi NNW 26.5 mph 33.4 mph N/A   Mostly Cloudy
9:55 AM 42.8 °F 33.1 °F 32.0 °F 66% 29.90 in 10.0 mi NNW 25.3 mph 31.1 mph N/A   Overcast
10:15 AM 42.8 °F 33.3 °F 30.2 °F 61% 29.92 in 10.0 mi NW 24.2 mph 31.1 mph N/A   Overcast
10:35 AM 42.8 °F 33.1 °F 28.4 °F 57% 29.94 in 10.0 mi NW 25.3 mph 34.5 mph N/A   Scattered Clouds
10:55 AM 44.6 °F 35.5 °F 28.4 °F 53% 29.96 in 10.0 mi NW 25.3 mph 31.1 mph N/A   Scattered Clouds
11:15 AM 44.6 °F 36.9 °F 28.4 °F 53% 29.96 in 10.0 mi NNW 18.4 mph 31.1 mph N/A   Scattered Clouds
11:35 AM 46.4 °F 38.3 °F 24.8 °F 43% 29.96 in 10.0 mi NW 23.0 mph 32.2 mph N/A   Clear
11:55 AM 48.2 °F - 21.2 °F 34% 29.97 in 10.0 mi NW 25.3 mph 31.1 mph N/A   Clear
12:15 PM 50.0 °F - 19.4 °F 30% 29.96 in 10.0 mi NW 24.2 mph 31.1 mph N/A   Clear
12:35 PM 50.0 °F - 17.6 °F 28% 29.96 in 10.0 mi NW 25.3 mph 33.4 mph N/A   Clear
12:55 PM 51.8 °F - 15.8 °F 24% 29.95 in 10.0 mi NW 27.6 mph 38.0 mph N/A   Clear
1:15 PM 51.8 °F - 14.0 °F 22% 29.96 in 10.0 mi NW 25.3 mph 36.8 mph N/A   Clear
1:35 PM 51.8 °F - 10.4 °F 19% 29.97 in 10.0 mi NW 24.2 mph 34.5 mph N/A   Clear
1:55 PM 51.8 °F - 10.4 °F 19% 29.98 in 10.0 mi NW 25.3 mph 33.4 mph N/A   Clear
2:15 PM 51.8 °F - 8.6 °F 18% 29.98 in 10.0 mi NW 23.0 mph 29.9 mph N/A   Clear
2:35 PM 51.8 °F - 10.4 °F 19% 29.98 in 10.0 mi NW 23.0 mph 28.8 mph N/A   Clear
2:55 PM 51.8 °F - 12.2 °F 21% 29.97 in 10.0 mi NNW 21.9 mph 29.9 mph N/A   Scattered Clouds
3:15 PM 51.8 °F - 14.0 °F 22% 29.98 in 10.0 mi NW 16.1 mph 24.2 mph N/A   Mostly Cloudy
3:35 PM 51.8 °F - 10.4 °F 19% 30.00 in 10.0 mi WNW 21.9 mph 29.9 mph N/A   Mostly Cloudy
3:55 PM 51.8 °F - 8.6 °F 18% 30.01 in 10.0 mi NW 32.2 mph 41.4 mph N/A   Scattered Clouds
4:15 PM 51.8 °F - 3.2 °F 14% 30.02 in 10.0 mi WNW 25.3 mph 33.4 mph N/A   Scattered Clouds
4:35 PM 51.8 °F - 3.2 °F 14% 30.02 in 10.0 mi WNW 19.6 mph 31.1 mph N/A   Scattered Clouds
4:55 PM 51.8 °F - 1.4 °F 13% 30.02 in 10.0 mi WNW 18.4 mph 26.5 mph N/A   Scattered Clouds
5:15 PM 50.0 °F - 1.4 °F 14% 30.03 in 10.0 mi NW 28.8 mph 38.0 mph N/A   Clear
5:35 PM 50.0 °F - 3.2 °F 15% 30.05 in 10.0 mi WNW 24.2 mph 33.4 mph N/A   Mostly Cloudy
5:55 PM 48.2 °F - 3.2 °F 16% 30.05 in 10.0 mi WNW 19.6 mph 34.5 mph N/A   Overcast
6:15 PM 46.4 °F 40.7 °F 8.6 °F 22% 30.05 in 10.0 mi WNW 12.7 mph 24.2 mph N/A   Overcast
6:35 PM 44.6 °F 38.8 °F 8.6 °F 23% 30.05 in 10.0 mi WNW 11.5 mph - N/A   Scattered Clouds
6:55 PM 42.8 °F 38.0 °F 10.4 °F 27% 30.05 in 10.0 mi WNW 8.1 mph - N/A   Mostly Cloudy
7:15 PM 41.0 °F 35.8 °F 10.4 °F 29% 30.07 in 10.0 mi West 8.1 mph - N/A   Scattered Clouds
7:35 PM 41.0 °F 36.4 °F 10.4 °F 29% 30.07 in 10.0 mi WNW 6.9 mph - N/A   Clear
7:55 PM 37.4 °F 32.8 °F 10.4 °F 33% 30.08 in 10.0 mi West 5.8 mph - N/A   Clear
8:15 PM 37.4 °F 31.4 °F 10.4 °F 33% 30.08 in 10.0 mi West 8.1 mph - N/A   Clear
8:35 PM 35.6 °F 30.7 °F 10.4 °F 35% 30.08 in 10.0 mi WSW 5.8 mph - N/A   Clear
8:55 PM 35.6 °F 29.9 °F 10.4 °F 35% 30.08 in 10.0 mi WSW 6.9 mph - N/A   Clear
9:15 PM 33.8 °F 28.6 °F 10.4 °F 38% 30.08 in 10.0 mi SW 5.8 mph - N/A   Clear
9:35 PM 33.8 °F 27.0 °F 10.4 °F 38% 30.09 in 10.0 mi WSW 8.1 mph - N/A   Clear
9:55 PM 32.0 °F 24.2 °F 10.4 °F 41% 30.09 in 10.0 mi SW 9.2 mph - N/A   Clear
10:15 PM 33.8 °F 26.4 °F 10.4 °F 38% 30.09 in 10.0 mi SW 9.2 mph - N/A   Clear
10:35 PM 32.0 °F 24.8 °F 12.2 °F 44% 30.09 in 10.0 mi SW 8.1 mph - N/A   Clear
10:55 PM 32.0 °F 24.2 °F 12.2 °F 44% 30.09 in 10.0 mi SW 9.2 mph - N/A   Clear
11:15 PM 32.0 °F 23.6 °F 14.0 °F 48% 30.09 in 10.0 mi SW 10.4 mph - N/A   Clear
11:35 PM 32.0 °F 23.6 °F 14.0 °F 48% 30.09 in 10.0 mi SW 10.4 mph - N/A   Clear
11:55 PM 32.0 °F 23.6 °F 14.0 °F 48% 30.09 in 10.0 mi SW 10.4 mph - N/A   Clear